CheckWX is a tool to help pilots better visualize weather data.  It is not intended as a substitute for an official pre-flight weather briefing.

23:10:00 UTC

4V0 METAR
Rangely Airport
Rangely, Colorado, USA
Current

35 mins ago

K4V0 242235Z AUTO 32012KT 10SM SCT060 BKN075 OVC085 13/04 A2998 RMK AO2 T01300044
Observed
May-24 @ 22:35 UTC
Wind
  • 320° at 12 KTS
Visibility
10 SM
Flight Rules
VFR
Cloud Levels
  • Scattered at 6,000' AGL
  • Broken at 7,500' AGL
  • Overcast at 8,500' AGL
Temperature
13°C / 55°F
Dewpoint
C / 39°F
Humidity
55%
Altimeter
29.98" Hg
Pressure
1015.22 hPa
Previous

55 mins ago

K4V0 242215Z AUTO 22013G20KT 10SM BKN060 BKN085 OVC100 15/00 A2999 RMK AO2 LTG DSNT NE T01450004
Observed
May-24 @ 22:15 UTC
Wind
  • 220° at 13 KTS
  • Gusting to 20 KTS
Visibility
10 SM
Flight Rules
VFR
Cloud Levels
  • Broken at 6,000' AGL
  • Broken at 8,500' AGL
  • Overcast at 10,000' AGL
Temperature
15°C / 59°F
Dewpoint
C / 32°F
Humidity
36%
Altimeter
29.99" Hg
Pressure
1015.62 hPa
Previous

1 hour ago

K4V0 242155Z AUTO 25012KT 10SM SCT060 BKN080 OVC100 15/01 A2999 RMK AO2 T01470008
Observed
May-24 @ 21:55 UTC
Wind
  • 250° at 12 KTS
Visibility
10 SM
Flight Rules
VFR
Cloud Levels
  • Scattered at 6,000' AGL
  • Broken at 8,000' AGL
  • Overcast at 10,000' AGL
Temperature
15°C / 59°F
Dewpoint
C / 34°F
Humidity
39%
Altimeter
29.99" Hg
Pressure
1015.62 hPa